Time;durP1;ratioP1;P1;durP2;ratioP2;P2;SDS_P1;SDS_P2;PMS_P1;PMS_P2;Temp;Humidity;BMP_temperature;BMP_pressure;BME280_temperature;BME280_humidity;BME280_pressure;Samples;Min_cycle;Max_cycle;Signal;HPM_P1;HPM_P2
2022/06/05 00:01:04;;;;;;;16.10;4.62;;;;;;;17.18;79.37;100036.09;1723411;83;21252;-81
2022/06/05 00:04:59;;;;;;;8.78;4.58;;;;;;;17.15;79.45;100033.77;1723617;83;21161;-82
2022/06/05 00:08:13;;;;;;;12.15;4.12;;;;;;;17.10;79.51;100040.80;1721969;83;21531;-82
2022/06/05 00:11:19;;;;;;;9.40;4.10;;;;;;;17.04;79.51;100030.67;1723390;83;21798;-82
2022/06/05 00:14:24;;;;;;;6.70;3.50;;;;;;;16.99;79.73;100021.37;1722182;83;21256;-82
2022/06/05 00:17:31;;;;;;;6.85;3.85;;;;;;;16.92;79.94;100021.41;1737917;79;21251;-82
2022/06/05 00:20:31;;;;;;;5.80;3.55;;;;;;;16.88;80.08;100011.87;1746904;82;21243;-82
2022/06/05 00:23:37;;;;;;;4.75;3.72;;;;;;;16.86;80.20;100010.72;1745802;82;21609;-82
2022/06/05 00:26:47;;;;;;;9.58;3.72;;;;;;;16.84;80.33;100010.63;1746802;82;21850;-82
2022/06/05 00:30:13;;;;;;;7.58;4.08;;;;;;;16.81;80.45;100015.23;1745632;82;21272;-82
2022/06/05 00:33:35;;;;;;;6.62;3.72;;;;;;;16.80;80.49;100013.55;1745957;82;21243;-82
2022/06/05 00:36:51;;;;;;;9.50;3.70;;;;;;;16.78;80.54;100017.05;1746588;82;21240;-81
2022/06/05 00:40:26;;;;;;;12.95;3.72;;;;;;;16.76;80.51;100008.16;1746388;82;21195;-81
2022/06/05 00:43:33;;;;;;;9.75;3.72;;;;;;;16.75;80.44;100003.68;1745413;81;21239;-81
2022/06/05 00:46:40;;;;;;;5.65;3.20;;;;;;;16.71;80.37;99991.38;1725848;82;21190;-82
2022/06/05 00:50:17;;;;;;;10.03;3.60;;;;;;;16.71;80.41;99985.86;1752209;82;21236;-82
2022/06/05 00:53:22;;;;;;;8.88;3.55;;;;;;;16.69;80.41;99983.84;1808626;79;21783;-82
2022/06/05 00:56:28;;;;;;;6.03;3.70;;;;;;;16.66;80.42;99987.07;1809190;79;21197;-82
2022/06/05 00:59:34;;;;;;;4.33;3.05;;;;;;;16.65;80.43;99988.12;1809276;79;21819;-82
2022/06/05 01:02:40;;;;;;;9.68;3.47;;;;;;;16.61;80.45;99982.22;1718399;82;21224;-82
2022/06/05 01:05:46;;;;;;;16.60;4.30;;;;;;;16.60;80.57;99975.82;1718051;82;21236;-82
2022/06/05 01:08:52;;;;;;;6.37;3.72;;;;;;;16.58;80.68;99976.59;1739139;82;21231;-82
2022/06/05 01:12:10;;;;;;;7.90;3.87;;;;;;;16.57;80.77;99982.35;1740612;82;21549;-81
2022/06/05 01:15:27;;;;;;;5.08;3.47;;;;;;;16.55;80.84;99980.33;1740335;82;21260;-82
2022/06/05 01:18:40;;;;;;;7.95;3.90;;;;;;;16.52;80.92;99963.70;1740236;82;21217;-82
2022/06/05 01:22:09;;;;;;;7.05;3.35;;;;;;;16.50;80.96;99981.00;1741568;82;21185;-82
2022/06/05 01:25:51;;;;;;;11.40;3.52;;;;;;;16.47;80.96;99982.84;1740602;82;21259;-82
2022/06/05 01:29:18;;;;;;;5.05;3.58;;;;;;;16.43;80.97;99986.27;1740600;82;21185;-82
2022/06/05 01:32:34;;;;;;;12.10;3.47;;;;;;;16.42;80.97;99988.70;1740440;82;21196;-82
2022/06/05 01:36:23;;;;;;;6.90;3.80;;;;;;;16.40;80.93;99988.09;1739106;82;21248;-82
2022/06/05 01:39:49;;;;;;;12.47;3.35;;;;;;;16.39;80.87;99990.00;1740772;82;21836;-82
2022/06/05 01:43:09;;;;;;;6.78;3.25;;;;;;;16.38;80.74;99988.86;1740217;82;21228;-82
2022/06/05 01:46:40;;;;;;;5.62;3.12;;;;;;;16.38;80.68;99995.76;1740926;82;21252;-82
2022/06/05 01:50:01;;;;;;;5.72;3.65;;;;;;;16.38;80.66;99991.08;1710403;84;21220;-81
2022/06/05 01:53:34;;;;;;;5.05;2.98;;;;;;;16.40;80.56;99998.59;1703067;83;22128;-81
2022/06/05 01:56:45;;;;;;;4.78;2.92;;;;;;;16.41;80.51;99988.39;1769011;81;21752;-81
2022/06/05 01:59:59;;;;;;;8.83;3.80;;;;;;;16.44;80.41;99990.18;1769459;81;21762;-81
2022/06/05 02:03:19;;;;;;;4.97;3.20;;;;;;;16.47;80.29;99991.13;1770212;81;21170;-81
2022/06/05 02:06:46;;;;;;;5.55;3.30;;;;;;;16.49;80.16;99988.98;1768034;81;21829;-81
2022/06/05 02:10:20;;;;;;;6.33;3.22;;;;;;;16.51;80.13;99996.48;1768951;81;21237;-81
2022/06/05 02:13:26;;;;;;;4.42;3.35;;;;;;;16.54;80.10;99993.29;1769322;81;21813;-81
2022/06/05 02:16:32;;;;;;;5.85;3.60;;;;;;;16.59;80.01;99996.23;1769263;81;21753;-81
2022/06/05 02:19:38;;;;;;;12.30;3.35;;;;;;;16.63;79.86;99999.39;1769507;81;21802;-81
2022/06/05 02:22:53;;;;;;;8.38;3.30;;;;;;;16.68;79.73;99993.20;1769111;81;21170;-81
2022/06/05 02:25:59;;;;;;;5.12;3.22;;;;;;;16.72;79.59;99980.14;1768518;81;21985;-81
2022/06/05 02:29:09;;;;;;;4.22;2.75;;;;;;;16.75;79.49;99973.30;1769558;81;21170;-81
2022/06/05 02:32:20;;;;;;;5.37;3.10;;;;;;;16.77;79.49;99972.02;1769326;81;21825;-81
2022/06/05 02:35:42;;;;;;;4.90;3.02;;;;;;;16.79;79.46;99971.25;1767995;81;21178;-82
2022/06/05 02:39:16;;;;;;;7.15;3.40;;;;;;;16.81;79.40;99965.52;1769364;81;21821;-82
2022/06/05 02:42:50;;;;;;;5.75;3.85;;;;;;;16.82;79.50;99967.20;1769427;81;21623;-82
2022/06/05 02:46:34;;;;;;;10.45;3.42;;;;;;;16.85;79.62;99957.09;1768641;81;21222;-82
2022/06/05 02:49:51;;;;;;;6.00;3.40;;;;;;;16.90;79.65;99961.94;1769705;81;21185;-82
2022/06/05 02:52:59;;;;;;;7.30;3.77;;;;;;;16.95;79.62;99962.95;1767769;81;21224;-82
2022/06/05 02:56:05;;;;;;;12.03;3.85;;;;;;;17.03;79.50;99966.81;1769060;81;21240;-82
2022/06/05 02:59:11;;;;;;;7.58;3.65;;;;;;;17.08;79.39;99968.36;1770239;81;21185;-82
2022/06/05 03:05:40;;;;;;;9.50;3.87;;;;;;;17.20;78.88;99964.30;1773602;81;21299;-82
2022/06/05 03:08:46;;;;;;;9.30;3.80;;;;;;;17.25;78.71;99960.84;1775110;81;21185;-82
2022/06/05 03:11:52;;;;;;;8.43;3.85;;;;;;;17.28;78.61;99963.17;1775018;81;21701;-81
2022/06/05 03:15:01;;;;;;;8.55;3.83;;;;;;;17.32;78.48;99958.88;1774124;81;21172;-82
2022/06/05 03:18:06;;;;;;;8.53;3.67;;;;;;;17.36;78.49;99966.98;1795447;79;21276;-81
2022/06/05 03:21:12;;;;;;;10.18;3.85;;;;;;;17.44;78.45;99961.17;1799193;79;21208;-81
2022/06/05 03:24:18;;;;;;;6.72;3.55;;;;;;;17.52;78.30;99956.72;1800485;79;21291;-82
2022/06/05 03:27:23;;;;;;;11.40;3.92;;;;;;;17.63;78.04;99958.70;1800816;79;21224;-82
2022/06/05 03:30:29;;;;;;;10.93;4.47;;;;;;;17.76;77.65;99962.44;1800847;79;21177;-81
2022/06/05 03:33:33;;;;;;;7.50;4.00;;;;;;;17.87;77.38;99961.09;1769114;81;21188;-82
2022/06/05 03:36:33;;;;;;;12.37;4.12;;;;;;;18.00;77.02;99956.48;1768581;81;21224;-82
2022/06/05 03:39:38;;;;;;;10.03;4.22;;;;;;;18.14;76.51;99957.45;1767330;81;21823;-81
2022/06/05 03:42:44;;;;;;;11.95;4.17;;;;;;;18.29;75.79;99957.56;1751394;81;21232;-82
2022/06/05 03:45:50;;;;;;;8.88;3.30;;;;;;;18.42;75.23;99949.61;1767782;81;21224;-81
2022/06/05 03:48:57;;;;;;;9.08;4.30;;;;;;;18.52;74.73;99949.33;1768681;81;21239;-81
2022/06/05 03:52:02;;;;;;;9.75;4.05;;;;;;;18.62;74.31;99952.89;1767576;81;21209;-81
2022/06/05 03:55:07;;;;;;;6.92;3.90;;;;;;;18.67;74.01;99946.09;1771256;79;21210;-81
2022/06/05 03:58:12;;;;;;;8.55;4.60;;;;;;;18.69;73.72;99938.45;1773613;81;21239;-81
2022/06/05 04:01:19;;;;;;;17.80;5.03;;;;;;;18.67;73.82;99932.80;1774669;81;21190;-81
2022/06/05 04:04:25;;;;;;;13.43;4.35;;;;;;;18.67;74.04;99928.64;1773369;81;21564;-82
2022/06/05 04:07:30;;;;;;;10.30;5.20;;;;;;;18.65;74.26;99925.58;1774826;81;21194;-81
2022/06/05 04:10:37;;;;;;;12.98;5.30;;;;;;;18.62;74.55;99926.03;1774797;81;21182;-81
2022/06/05 04:13:43;;;;;;;11.25;5.03;;;;;;;18.64;74.82;99928.05;1774647;81;21202;-81
2022/06/05 04:16:49;;;;;;;9.28;5.40;;;;;;;18.86;74.92;99920.56;1783665;79;21184;-82
2022/06/05 04:19:56;;;;;;;11.12;5.08;;;;;;;19.19;74.06;99923.27;1806643;79;21173;-82
2022/06/05 04:23:02;;;;;;;11.10;5.45;;;;;;;19.53;72.41;99924.33;1806686;79;21165;-82
2022/06/05 04:26:09;;;;;;;8.00;5.22;;;;;;;19.82;71.64;99915.53;1800812;79;21189;-81
2022/06/05 04:29:15;;;;;;;7.47;4.72;;;;;;;20.13;70.87;99926.13;1783936;79;21227;-82
2022/06/05 04:32:21;;;;;;;11.05;5.05;;;;;;;20.28;70.14;99920.56;1775721;79;21811;-81
2022/06/05 04:35:27;;;;;;;11.22;5.58;;;;;;;20.36;70.49;99913.22;1790218;79;21192;-82
2022/06/05 04:38:33;;;;;;;13.68;5.70;;;;;;;20.62;70.29;99911.78;1791585;79;21224;-82
2022/06/05 04:41:39;;;;;;;10.18;5.17;;;;;;;20.97;69.63;99913.45;1773384;81;21201;-82
2022/06/05 04:44:45;;;;;;;9.80;5.40;;;;;;;21.28;68.73;99905.02;1774876;81;21185;-82
2022/06/05 04:47:50;;;;;;;12.15;5.45;;;;;;;21.57;67.60;99894.04;1774749;81;21159;-82
2022/06/05 04:50:50;;;;;;;10.70;5.45;;;;;;;21.91;67.44;99894.72;1783384;79;21141;-82
2022/06/05 04:53:57;;;;;;;9.48;5.53;;;;;;;22.13;66.07;99902.25;1779350;79;21197;-82
2022/06/05 04:57:04;;;;;;;15.28;5.50;;;;;;;22.16;65.89;99897.00;1728890;82;21756;-82
2022/06/05 05:00:12;;;;;;;8.05;5.30;;;;;;;22.17;66.19;99897.84;1735508;82;21195;-82
2022/06/05 05:03:12;;;;;;;12.80;5.30;;;;;;;22.16;65.99;99902.57;1731304;82;21716;-82
2022/06/05 05:06:19;;;;;;;11.53;5.10;;;;;;;22.22;65.95;99906.80;1705087;82;21304;-82
2022/06/05 05:09:26;;;;;;;7.50;5.17;;;;;;;22.30;65.90;99923.89;1730248;82;21180;-82
2022/06/05 05:12:33;;;;;;;10.93;4.40;;;;;;;22.43;65.75;99920.65;1743257;81;21750;-82
2022/06/05 05:15:39;;;;;;;12.07;5.15;;;;;;;22.58;65.12;99917.16;1728608;82;21602;-82
2022/06/05 05:18:48;;;;;;;10.15;5.55;;;;;;;22.63;65.89;99911.66;1735390;82;21232;-82
2022/06/05 05:21:54;;;;;;;13.78;5.45;;;;;;;22.80;64.96;99910.67;1742371;81;21216;-81
2022/06/05 05:25:00;;;;;;;10.93;4.92;;;;;;;22.92;64.35;99908.58;1735510;82;21197;-82
2022/06/05 05:28:06;;;;;;;12.60;5.08;;;;;;;23.04;63.85;99898.05;1721385;82;21265;-81
2022/06/05 05:31:22;;;;;;;7.37;4.50;;;;;;;23.11;63.46;99902.86;1731124;81;21910;-82
2022/06/05 05:34:27;;;;;;;9.10;5.53;;;;;;;23.24;63.75;99907.66;1718891;82;21256;-82
2022/06/05 05:37:32;;;;;;;8.03;4.47;;;;;;;23.39;63.75;99916.14;1726303;82;21553;-82
2022/06/05 05:44:02;;;;;;;8.28;4.50;;;;;;;24.03;62.67;99913.64;1729054;82;21864;-82
2022/06/05 05:47:08;;;;;;;9.40;4.62;;;;;;;24.26;61.44;99904.77;1707195;82;21197;-82
2022/06/05 05:50:16;;;;;;;8.45;4.87;;;;;;;24.36;61.07;99912.33;1739006;81;21181;-82
2022/06/05 05:53:24;;;;;;;10.55;5.20;;;;;;;24.27;60.83;99912.59;1720832;82;21754;-81
2022/06/05 05:56:32;;;;;;;7.53;4.70;;;;;;;24.07;61.51;99907.23;1705139;82;21844;-81
2022/06/05 05:59:38;;;;;;;9.30;4.80;;;;;;;23.93;62.26;99902.72;1709564;83;21812;-81
2022/06/05 06:02:38;;;;;;;7.97;5.05;;;;;;;23.71;63.05;99893.17;1737428;82;21209;-81
2022/06/05 06:05:31;;;;;;;10.10;5.00;;;;;;;23.52;63.85;99894.70;1736282;82;21232;-81
2022/06/05 06:08:35;;;;;;;8.93;4.72;;;;;;;23.50;65.02;99887.72;1736653;82;21213;-81
2022/06/05 06:11:41;;;;;;;9.43;5.17;;;;;;;23.58;65.02;99891.40;1737306;82;21712;-81
2022/06/05 06:14:47;;;;;;;12.65;5.33;;;;;;;23.70;64.20;99885.88;1724590;81;21230;-82
2022/06/05 06:17:53;;;;;;;7.55;4.08;;;;;;;23.93;63.89;99885.13;1714078;82;21245;-81
2022/06/05 06:20:59;;;;;;;9.33;4.80;;;;;;;24.15;62.98;99879.33;1738506;82;21733;-81
2022/06/05 06:24:07;;;;;;;10.63;3.87;;;;;;;24.27;62.85;99883.24;1737855;82;21229;-81
2022/06/05 06:27:13;;;;;;;12.47;4.60;;;;;;;24.45;61.89;99891.12;1737732;82;21244;-81
2022/06/05 06:30:20;;;;;;;8.75;4.37;;;;;;;24.55;61.44;99881.34;1738094;82;21247;-82
2022/06/05 06:33:25;;;;;;;8.75;4.30;;;;;;;24.67;60.97;99883.31;1737928;81;21169;-82
2022/06/05 06:36:32;;;;;;;9.68;3.83;;;;;;;24.81;60.70;99884.16;1730163;81;21580;-82
2022/06/05 06:39:38;;;;;;;9.00;3.20;;;;;;;25.01;60.10;99881.89;1733014;82;21771;-81
2022/06/05 06:42:44;;;;;;;7.65;2.83;;;;;;;25.17;59.55;99883.03;1737821;82;21157;-82
2022/06/05 06:45:49;;;;;;;7.25;3.25;;;;;;;25.25;57.98;99878.79;1726739;82;21772;-81
2022/06/05 06:48:55;;;;;;;10.15;3.25;;;;;;;25.32;58.06;99885.51;1736828;82;21284;-81
2022/06/05 06:52:01;;;;;;;5.75;2.92;;;;;;;25.43;57.78;99887.14;1738142;82;21216;-81
2022/06/05 06:55:07;;;;;;;5.15;2.95;;;;;;;25.52;56.56;99886.00;1737657;82;21252;-81
2022/06/05 06:58:12;;;;;;;11.40;2.62;;;;;;;25.61;57.25;99877.28;1732365;82;21260;-81
2022/06/05 07:01:20;;;;;;;7.78;2.85;;;;;;;25.71;56.23;99866.03;1779274;79;21177;-82
2022/06/05 07:04:27;;;;;;;7.50;2.62;;;;;;;25.78;56.29;99864.34;1798766;79;21168;-82
2022/06/05 07:07:42;;;;;;;8.48;3.00;;;;;;;25.84;54.96;99863.21;1780612;79;21264;-82
2022/06/05 07:10:46;;;;;;;8.53;3.30;;;;;;;25.78;55.63;99858.17;1769489;81;21260;-82
2022/06/05 07:13:54;;;;;;;5.30;2.72;;;;;;;25.77;55.86;99868.28;1779706;79;21779;-81
2022/06/05 07:17:03;;;;;;;5.67;2.30;;;;;;;25.81;55.06;99852.58;1786294;79;21172;-81
2022/06/05 07:20:09;;;;;;;6.78;2.12;;;;;;;25.86;54.91;99846.38;1780933;79;21232;-81
2022/06/05 07:23:14;;;;;;;5.60;2.15;;;;;;;25.92;54.19;99844.38;1781786;79;21165;-81
2022/06/05 07:26:21;;;;;;;7.22;2.83;;;;;;;25.90;52.75;99844.67;1798434;79;21807;-81
2022/06/05 07:29:27;;;;;;;4.47;2.58;;;;;;;25.84;52.65;99838.00;1770791;79;21756;-81
2022/06/05 07:32:32;;;;;;;5.42;2.85;;;;;;;25.76;52.04;99842.23;1800808;79;21181;-81
2022/06/05 07:35:41;;;;;;;5.85;2.90;;;;;;;25.82;53.01;99844.44;1799972;79;21299;-81
2022/06/05 07:38:50;;;;;;;5.05;2.90;;;;;;;25.95;51.94;99853.61;1784152;79;21256;-81
2022/06/05 07:42:02;;;;;;;8.58;3.45;;;;;;;26.05;51.56;99848.51;1775826;79;21181;-81
2022/06/05 07:45:09;;;;;;;9.28;3.00;;;;;;;26.15;49.88;99852.08;1772415;79;21412;-81
2022/06/05 07:48:18;;;;;;;5.90;2.72;;;;;;;26.29;50.49;99852.83;1770576;79;21218;-81
2022/06/05 07:54:50;;;;;;;6.60;2.60;;;;;;;26.61;48.47;99848.13;1777774;79;21185;-81
2022/06/05 07:57:57;;;;;;;6.15;3.02;;;;;;;26.61;45.77;99853.16;1789341;79;21232;-81
2022/06/05 08:01:02;;;;;;;6.15;2.55;;;;;;;26.62;46.63;99848.39;1772508;79;21200;-81
2022/06/05 08:04:12;;;;;;;8.08;2.77;;;;;;;26.63;46.40;99843.91;1732387;81;21201;-82
2022/06/05 08:07:21;;;;;;;7.30;2.47;;;;;;;26.73;47.43;99843.81;1780747;79;21220;-81
2022/06/05 08:10:27;;;;;;;7.80;2.98;;;;;;;26.78;46.26;99835.08;1727040;82;21807;-81
2022/06/05 08:13:34;;;;;;;5.62;2.87;;;;;;;26.99;46.28;99822.50;1781727;79;21274;-81
2022/06/05 08:16:43;;;;;;;4.05;2.50;;;;;;;26.99;46.28;99822.50;1772667;79;21460;-81
2022/06/05 08:24:24;;;;;;;6.55;3.08;;;;;;;27.25;44.86;99827.31;1773581;79;21182;-81
2022/06/05 08:27:32;;;;;;;5.42;2.92;;;;;;;27.44;44.43;99822.58;1769580;81;21229;-80
2022/06/05 08:30:38;;;;;;;8.08;3.00;;;;;;;27.67;43.00;99819.48;1767602;81;21253;-81
2022/06/05 08:33:44;;;;;;;10.15;3.25;;;;;;;27.89;42.12;99820.31;1780523;79;21232;-81
2022/06/05 08:41:26;;;;;;;8.93;3.05;;;;;;;28.11;42.28;99816.91;1778523;79;21233;-80
2022/06/05 08:43:35;;;;;;;11.25;2.87;;;;;;;28.41;42.96;99818.41;1800630;79;21754;-81
2022/06/05 08:47:09;;;;;;;6.60;2.42;;;;;;;28.44;42.37;99818.38;1702650;82;21200;-81
2022/06/05 08:50:32;;;;;;;25.70;3.15;;;;;;;28.51;41.79;99816.00;1767978;81;21213;-80
2022/06/05 08:53:54;;;;;;;4.53;2.62;;;;;;;28.61;41.77;99829.08;1768993;81;21232;-80
2022/06/05 08:57:16;;;;;;;7.90;2.80;;;;;;;28.51;41.80;99818.27;1770176;81;21161;-80
2022/06/05 09:00:31;;;;;;;5.03;2.37;;;;;;;28.41;41.71;99814.77;1744323;80;21158;-80
2022/06/05 09:04:08;;;;;;;5.33;2.50;;;;;;;28.38;41.87;99819.05;1762804;81;21180;-80
2022/06/05 09:07:18;;;;;;;4.95;2.20;;;;;;;28.25;41.43;99817.80;1761387;80;21183;-80
2022/06/05 09:10:32;;;;;;;5.67;2.10;;;;;;;28.22;40.19;99821.79;1763888;80;21568;-80
2022/06/05 09:14:00;;;;;;;3.62;2.35;;;;;;;28.22;40.48;99824.03;1760542;81;21242;-80
2022/06/05 09:17:10;;;;;;;4.60;1.95;;;;;;;28.17;40.04;99821.30;1762209;81;21795;-80
2022/06/05 09:20:18;;;;;;;;;;;;;;;28.05;39.73;99814.48;1763882;81;21197;-80
2022/06/05 09:23:50;;;;;;;11.35;2.40;;;;;;;27.95;40.22;99809.86;1760740;81;20220;-80
2022/06/05 09:27:01;;;;;;;5.15;2.17;;;;;;;27.90;41.42;99811.30;1756724;81;21173;-80
2022/06/05 09:30:17;;;;;;;6.50;2.15;;;;;;;28.10;38.15;99808.21;1761639;81;21225;-80
2022/06/05 09:33:34;;;;;;;7.03;2.25;;;;;;;28.11;37.34;99814.09;1762258;81;21821;-80
2022/06/05 09:36:41;;;;;;;2.42;1.80;;;;;;;28.15;36.79;99810.94;1762131;81;21218;-80
2022/06/05 09:39:56;;;;;;;4.78;1.90;;;;;;;28.25;36.81;99803.74;1761783;81;21186;-80
2022/06/05 09:43:32;;;;;;;2.30;2.00;;;;;;;28.34;36.43;99808.14;1768087;80;21131;-80
2022/06/05 09:47:07;;;;;;;3.37;1.47;;;;;;;28.39;36.81;99808.63;1763068;81;21163;-80
2022/06/05 09:50:20;;;;;;;2.62;1.60;;;;;;;28.45;36.03;99798.95;1764066;80;21554;-80
2022/06/05 09:53:33;;;;;;;3.83;1.62;;;;;;;28.61;33.86;99799.54;1763314;81;21709;-80
2022/06/05 10:00:53;;;;;;;4.47;2.17;;;;;;;28.71;34.30;99821.86;1778639;80;21231;-80
2022/06/05 10:03:59;;;;;;;4.83;1.82;;;;;;;28.68;34.19;99805.02;1761004;81;21567;-80
2022/06/05 10:07:11;;;;;;;5.20;2.10;;;;;;;28.75;34.75;99797.59;1769908;80;21169;-80
2022/06/05 10:10:27;;;;;;;7.90;2.35;;;;;;;28.89;34.18;99795.64;1783885;80;21780;-80
2022/06/05 10:13:51;;;;;;;2.95;1.70;;;;;;;28.98;34.57;99797.17;1794423;80;21150;-80
2022/06/05 10:17:30;;;;;;;2.98;1.60;;;;;;;28.91;34.94;99788.28;1759338;80;21208;-80
2022/06/05 10:21:09;;;;;;;2.67;1.52;;;;;;;28.73;32.39;99786.63;1776660;80;21165;-80
2022/06/05 10:24:42;;;;;;;3.40;1.85;;;;;;;28.61;32.53;99794.75;1769635;80;21248;-80
2022/06/05 10:27:56;;;;;;;3.15;1.70;;;;;;;28.62;34.50;99795.00;1792625;80;21229;-80
2022/06/05 10:31:08;;;;;;;5.40;1.80;;;;;;;28.66;33.65;99793.25;1765018;80;21272;-80
2022/06/05 10:34:46;;;;;;;3.92;1.87;;;;;;;28.66;34.32;99774.13;1762810;81;21224;-80
2022/06/05 10:38:11;;;;;;;6.72;1.92;;;;;;;28.82;33.97;99776.07;1761174;81;21815;-80
2022/06/05 10:41:52;;;;;;;2.98;1.55;;;;;;;29.05;34.94;99784.94;1762131;80;21827;-80
2022/06/05 10:45:03;;;;;;;4.00;1.80;;;;;;;29.09;32.79;99790.21;1781805;80;21173;-80
2022/06/05 10:48:34;;;;;;;2.90;1.87;;;;;;;28.99;33.20;99789.01;1713290;83;21201;-80
2022/06/05 10:51:50;;;;;;;7.90;1.92;;;;;;;28.93;34.93;99784.57;1741436;82;21276;-80
2022/06/05 10:55:30;;;;;;;5.45;2.60;;;;;;;28.93;34.55;99774.72;1692635;83;21335;-80
2022/06/05 10:58:53;;;;;;;4.00;2.40;;;;;;;28.91;36.55;99779.84;1682951;83;21216;-80
2022/06/05 11:02:07;;;;;;;7.83;3.33;;;;;;;28.77;37.34;99773.61;1703151;84;21280;-80
2022/06/05 11:05:40;;;;;;;9.70;3.60;;;;;;;28.60;39.55;99783.20;1701538;84;21213;-80
2022/06/05 11:09:19;;;;;;;7.30;3.60;;;;;;;28.35;40.98;99787.87;1701132;84;21257;-80
2022/06/05 11:16:26;;;;;;;9.15;3.80;;;;;;;27.65;42.98;99781.00;1708569;82;21525;-80
2022/06/05 11:19:55;;;;;;;12.82;3.98;;;;;;;27.44;43.23;99782.44;1713415;82;21241;-81
2022/06/05 11:23:11;;;;;;;6.58;3.77;;;;;;;27.12;43.82;99792.36;1725388;83;21161;-80
2022/06/05 11:26:53;;;;;;;9.53;3.90;;;;;;;27.12;43.82;99792.36;1723671;83;21197;-81
2022/06/05 11:30:32;;;;;;;7.65;4.05;;;;;;;27.05;43.21;99800.83;1730306;82;21205;-80
2022/06/05 11:33:40;;;;;;;9.60;3.92;;;;;;;26.90;42.93;99804.07;1714371;83;21217;-80
2022/06/05 11:36:54;;;;;;;7.05;3.20;;;;;;;26.78;42.96;99800.84;1710871;82;21221;-81
2022/06/05 11:40:28;;;;;;;8.08;3.85;;;;;;;26.71;42.65;99799.77;1703278;84;21193;-81
2022/06/05 11:43:42;;;;;;;6.22;3.67;;;;;;;26.64;41.33;99802.67;1705214;82;21237;-81
2022/06/05 11:47:11;;;;;;;7.40;3.10;;;;;;;26.42;41.51;99808.72;1720841;82;21751;-82
2022/06/05 11:50:55;;;;;;;7.55;3.95;;;;;;;26.25;42.15;99806.31;1703238;82;21211;-81
2022/06/05 11:54:26;;;;;;;4.67;2.80;;;;;;;26.25;42.15;99806.31;1711994;82;21216;-81
2022/06/05 11:57:57;;;;;;;5.75;2.75;;;;;;;25.82;51.33;99818.66;1703397;84;21174;-81
2022/06/05 12:01:06;;;;;;;5.17;3.12;;;;;;;25.82;51.33;99818.66;1703713;83;21521;-81
2022/06/05 12:04:48;;;;;;;14.53;3.10;;;;;;;25.54;52.34;99813.73;1722626;83;21206;-81
2022/06/05 12:07:49;;;;;;;8.20;2.83;;;;;;;25.32;53.90;99818.33;1724206;82;21225;-81
2022/06/05 12:11:10;;;;;;;7.58;2.95;;;;;;;25.03;54.82;99813.36;1795427;79;21247;-81
2022/06/05 12:14:25;;;;;;;4.17;2.35;;;;;;;24.87;55.62;99824.28;1780141;80;21181;-81
2022/06/05 12:18:08;;;;;;;8.38;2.98;;;;;;;24.74;55.98;99826.53;1779851;80;21792;-81
2022/06/05 12:21:32;;;;;;;5.05;2.50;;;;;;;24.63;56.43;99825.44;1779789;80;21177;-81
2022/06/05 12:24:50;;;;;;;8.35;3.15;;;;;;;24.64;56.66;99822.35;1778678;79;21788;-81
2022/06/05 12:28:09;;;;;;;8.73;2.70;;;;;;;24.60;56.34;99827.39;1778420;80;21181;-81
2022/06/05 12:31:23;;;;;;;4.22;2.60;;;;;;;24.52;56.63;99831.61;1786660;79;21186;-81
2022/06/05 12:34:34;;;;;;;7.53;2.65;;;;;;;24.43;56.96;99822.09;1784128;79;21221;-81
2022/06/05 12:37:52;;;;;;;8.30;2.70;;;;;;;24.42;57.51;99821.83;1781525;79;21241;-81
2022/06/05 12:41:20;;;;;;;9.65;3.37;;;;;;;24.47;57.54;99823.22;1809695;79;21216;-81
2022/06/05 12:44:52;;;;;;;4.72;2.50;;;;;;;24.51;56.45;99822.91;1810398;79;21161;-80
2022/06/05 12:48:32;;;;;;;8.43;3.00;;;;;;;24.55;56.46;99815.65;1782159;79;21188;-81
2022/06/05 12:51:38;;;;;;;6.62;2.70;;;;;;;24.62;56.49;99814.81;1789105;79;21181;-80
2022/06/05 12:55:02;;;;;;;6.10;2.75;;;;;;;24.75;57.10;99809.22;1738345;80;21315;-80
2022/06/05 12:58:28;;;;;;;8.83;2.60;;;;;;;24.74;55.31;99806.12;1778277;80;21743;-80
2022/06/05 13:01:39;;;;;;;13.20;2.58;;;;;;;24.61;55.83;99797.77;1784623;79;21169;-80
2022/06/05 13:05:13;;;;;;;8.48;2.33;;;;;;;24.52;56.26;99798.06;1723150;82;21228;-80
2022/06/05 13:08:51;;;;;;;9.20;2.50;;;;;;;24.46;56.30;99792.17;1718078;82;21239;-80
2022/06/05 13:12:32;;;;;;;12.28;3.50;;;;;;;24.35;55.39;99804.45;1739879;82;21252;-80
2022/06/05 13:15:54;;;;;;;12.07;4.00;;;;;;;24.20;54.29;99794.95;1724683;82;21197;-80
2022/06/05 13:19:29;;;;;;;6.50;3.67;;;;;;;24.03;54.32;99806.09;1710383;84;21227;-80
2022/06/05 13:22:43;;;;;;;4.67;3.25;;;;;;;23.91;54.72;99801.63;1739879;82;21193;-80
2022/06/05 13:26:11;;;;;;;7.62;2.70;;;;;;;23.86;54.88;99799.39;1709911;84;21240;-80
2022/06/05 13:29:38;;;;;;;5.17;3.08;;;;;;;23.80;54.80;99793.48;1709270;84;21201;-80
2022/06/05 13:33:13;;;;;;;6.00;2.30;;;;;;;23.76;55.02;99795.15;1740003;82;21212;-81
2022/06/05 13:36:39;;;;;;;4.55;2.25;;;;;;;23.71;55.33;99787.60;1712534;82;21271;-80
2022/06/05 13:40:01;;;;;;;5.75;2.30;;;;;;;23.67;54.76;99783.71;1710871;84;21212;-80
2022/06/05 13:43:07;;;;;;;6.60;1.98;;;;;;;23.60;54.82;99785.31;1710220;84;21232;-80
2022/06/05 13:46:34;;;;;;;5.17;2.22;;;;;;;23.59;54.34;99791.19;1720662;82;21248;-80
2022/06/05 13:50:06;;;;;;;6.80;1.90;;;;;;;23.61;53.74;99793.97;1719454;82;21288;-80
2022/06/05 13:53:27;;;;;;;6.97;1.67;;;;;;;23.65;53.42;99776.15;1739011;82;21799;-80
2022/06/05 13:56:40;;;;;;;8.38;1.75;;;;;;;23.71;53.83;99773.11;1733687;81;21249;-80
2022/06/05 13:59:55;;;;;;;7.35;2.10;;;;;;;23.74;53.73;99768.08;1716537;82;21750;-80
2022/06/05 14:03:14;;;;;;;5.50;2.33;;;;;;;23.73;53.57;99776.17;1740121;82;21695;-79
2022/06/05 14:06:30;;;;;;;9.33;3.40;;;;;;;23.67;53.28;99780.36;1746393;82;21327;-80
2022/06/05 14:09:54;;;;;;;9.08;3.05;;;;;;;23.60;53.25;99781.69;1780358;80;21149;-81
2022/06/05 14:13:15;;;;;;;7.22;2.90;;;;;;;23.58;53.64;99788.95;1778209;80;21276;-81
2022/06/05 14:16:21;;;;;;;7.58;2.95;;;;;;;23.55;53.71;99809.59;1754258;80;21204;-81
2022/06/05 14:19:41;;;;;;;7.80;2.20;;;;;;;23.49;52.88;99796.73;1778638;80;21172;-82
2022/06/05 14:22:57;;;;;;;5.60;2.90;;;;;;;23.43;53.10;99810.67;1779037;80;21251;-81
2022/06/05 14:26:09;;;;;;;13.08;2.90;;;;;;;23.38;53.82;99797.23;1740069;82;21286;-81
2022/06/05 14:29:13;;;;;;;7.12;2.98;;;;;;;23.40;53.69;99792.23;1777135;80;21220;-80
2022/06/05 14:32:34;;;;;;;4.45;2.45;;;;;;;23.40;53.78;99788.05;1775315;80;21205;-80
2022/06/05 14:35:45;;;;;;;7.78;2.80;;;;;;;23.40;54.04;99787.49;1732422;82;21229;-81
2022/06/05 14:38:58;;;;;;;;;;;;;;;23.38;54.10;99789.73;1708287;82;21261;-81
2022/06/05 14:42:09;;;;;;;5.22;2.37;;;;;;;23.34;54.02;99789.16;1739767;81;20647;-80
2022/06/05 14:45:21;;;;;;;5.85;2.25;;;;;;;23.26;54.41;99796.64;1782330;79;21184;-81
2022/06/05 14:48:35;;;;;;;4.45;2.02;;;;;;;23.19;54.83;99786.55;1778004;80;21187;-82
2022/06/05 14:51:46;;;;;;;5.12;2.12;;;;;;;23.16;54.91;99803.02;1779251;80;21752;-79
2022/06/05 14:58:52;;;;;;;9.55;2.08;;;;;;;23.04;54.99;99785.65;1777303;80;21518;-80
2022/06/05 15:02:11;;;;;;;3.17;1.90;;;;;;;22.99;54.64;99778.09;1780087;80;21929;-80
2022/06/05 15:05:33;;;;;;;7.33;1.72;;;;;;;22.91;54.52;99770.23;1777544;80;21192;-80
2022/06/05 15:08:59;;;;;;;5.67;1.95;;;;;;;22.89;54.80;99778.05;1777903;80;21589;-80
2022/06/05 15:12:11;;;;;;;8.18;1.92;;;;;;;22.89;55.01;99783.62;1777859;80;21219;-80
2022/06/05 15:15:20;;;;;;;5.47;1.55;;;;;;;22.94;54.16;99785.05;1787158;79;21208;-80
2022/06/05 15:18:24;;;;;;;7.30;1.75;;;;;;;22.97;53.74;99800.41;1783187;79;21696;-80
2022/06/05 15:21:47;;;;;;;7.70;1.75;;;;;;;22.97;53.73;99790.09;1803202;79;21251;-80
2022/06/05 15:25:00;;;;;;;4.33;1.77;;;;;;;23.02;52.28;99793.46;1776298;80;21662;-80
2022/06/05 15:28:40;;;;;;;7.30;1.85;;;;;;;22.98;51.23;99788.97;1775664;80;21184;-80
2022/06/05 15:31:56;;;;;;;8.73;2.52;;;;;;;22.90;51.11;99796.45;1791795;79;21188;-80
2022/06/05 15:35:14;;;;;;;3.37;1.40;;;;;;;22.73;50.82;99799.95;1808520;79;21224;-81
2022/06/05 15:38:42;;;;;;;4.40;1.40;;;;;;;22.51;50.65;99804.25;1740043;82;21572;-80
2022/06/05 15:41:59;;;;;;;2.67;1.50;;;;;;;22.30;50.88;99806.02;1741016;82;21186;-80
2022/06/05 15:45:29;;;;;;;10.43;1.40;;;;;;;22.14;51.42;99811.45;1738927;82;21843;-81